createdAt,value
2023-03-06T00:02:22.228Z,4.40
2023-03-06T00:04:49.205Z,4.40
2023-03-06T00:07:17.052Z,4.20
2023-03-06T00:09:44.431Z,4.20
2023-03-06T00:12:11.453Z,4.20
2023-03-06T00:14:39.862Z,4.30
2023-03-06T00:17:06.831Z,4.30
2023-03-06T00:19:34.077Z,4.50
2023-03-06T00:22:01.169Z,4.50
2023-03-06T00:24:28.554Z,4.70
2023-03-06T00:26:55.550Z,4.70
2023-03-06T00:29:22.758Z,4.60
2023-03-06T00:31:51.352Z,4.50
2023-03-06T00:34:18.404Z,4.50
2023-03-06T00:36:45.388Z,4.50
2023-03-06T00:39:12.456Z,4.50
2023-03-06T00:41:39.553Z,4.50
2023-03-06T00:44:06.852Z,4.70
2023-03-06T00:46:33.871Z,4.60
2023-03-06T00:49:02.485Z,4.70
2023-03-06T00:51:29.456Z,4.70
2023-03-06T00:53:56.421Z,4.60
2023-03-06T00:56:23.382Z,4.70
2023-03-06T00:58:55.880Z,4.70
2023-03-06T01:01:23.035Z,4.80
2023-03-06T01:03:50.082Z,4.70
2023-03-06T01:06:18.597Z,4.80
2023-03-06T01:08:45.576Z,4.70
2023-03-06T01:11:12.627Z,4.80
2023-03-06T01:13:39.542Z,4.60
2023-03-06T01:16:09.860Z,4.40
2023-03-06T01:18:37.277Z,4.20
2023-03-06T01:21:05.657Z,4.10
2023-03-06T01:23:34.041Z,4.00
2023-03-06T01:26:01.462Z,4.00
2023-03-06T01:28:29.075Z,4.10
2023-03-06T01:30:56.490Z,3.90
2023-03-06T01:33:23.467Z,3.90
2023-03-06T01:35:50.495Z,4.00
2023-03-06T01:38:17.473Z,4.00
2023-03-06T01:40:46.290Z,4.10
2023-03-06T01:43:27.175Z,4.00
2023-03-06T01:46:36.527Z,3.90
2023-03-06T01:49:07.668Z,3.80
2023-03-06T01:51:38.602Z,3.70
2023-03-06T01:54:09.194Z,3.70
2023-03-06T01:56:38.956Z,3.80
2023-03-06T01:59:07.016Z,3.80
2023-03-06T02:01:34.107Z,3.70
2023-03-06T02:04:01.865Z,3.80
2023-03-06T02:06:28.924Z,3.70
2023-03-06T02:08:56.475Z,3.80
2023-03-06T02:11:24.620Z,3.70
2023-03-06T02:13:54.648Z,3.70
2023-03-06T02:16:24.802Z,3.80
2023-03-06T02:18:52.680Z,3.80
2023-03-06T02:21:24.097Z,3.70
2023-03-06T02:24:08.315Z,3.80
2023-03-06T02:26:38.447Z,3.80
2023-03-06T02:29:08.721Z,3.80
2023-03-06T02:31:35.884Z,3.80
2023-03-06T02:34:06.808Z,3.70
2023-03-06T02:36:37.908Z,3.70
2023-03-06T02:39:05.661Z,3.70
2023-03-06T02:41:32.938Z,3.60
2023-03-06T02:44:01.288Z,3.60
2023-03-06T02:46:28.417Z,3.50
2023-03-06T02:48:55.525Z,3.50
2023-03-06T02:51:22.964Z,3.70
2023-03-06T02:53:50.060Z,3.70
2023-03-06T02:56:17.471Z,3.70
2023-03-06T02:58:44.689Z,3.60
2023-03-06T03:01:13.387Z,3.70
2023-03-06T03:03:40.579Z,3.70
2023-03-06T03:06:08.043Z,3.60
2023-03-06T03:08:35.533Z,3.60
2023-03-06T03:11:02.694Z,3.50
2023-03-06T03:13:30.026Z,3.50
2023-03-06T03:16:01.665Z,3.50
2023-03-06T03:18:30.431Z,3.50
2023-03-06T03:21:02.278Z,3.50
2023-03-06T03:23:29.272Z,3.50
2023-03-06T03:25:56.225Z,3.50
2023-03-06T03:28:31.061Z,3.70
2023-03-06T03:31:03.070Z,3.60
2023-03-06T03:33:31.846Z,3.60
2023-03-06T03:36:11.786Z,3.60
2023-03-06T03:38:38.894Z,3.60
2023-03-06T03:41:06.273Z,3.50
2023-03-06T03:43:33.443Z,3.50
2023-03-06T03:46:00.550Z,3.40
2023-03-06T03:48:27.606Z,3.50
2023-03-06T03:51:02.078Z,3.40
2023-03-06T03:53:29.131Z,3.40
2023-03-06T03:55:56.124Z,3.50
2023-03-06T03:58:23.242Z,3.40
2023-03-06T04:00:50.378Z,3.40
2023-03-06T04:03:17.564Z,3.40
2023-03-06T04:05:44.596Z,3.40
2023-03-06T04:08:13.104Z,3.40
2023-03-06T04:10:56.434Z,3.40
2023-03-06T04:13:28.088Z,3.40
2023-03-06T04:15:56.337Z,3.50
2023-03-06T04:18:23.954Z,3.50
2023-03-06T04:20:51.105Z,3.50
2023-03-06T04:23:25.417Z,3.50
2023-03-06T04:25:53.585Z,3.50
2023-03-06T04:28:20.832Z,3.50
2023-03-06T04:30:47.878Z,3.50
2023-03-06T04:33:15.023Z,3.40
2023-03-06T04:35:42.054Z,3.40
2023-03-06T04:38:09.104Z,3.50
2023-03-06T04:40:37.812Z,3.40
2023-03-06T04:43:05.490Z,3.40
2023-03-06T04:45:33.832Z,3.60
2023-03-06T04:48:01.247Z,3.70
2023-03-06T04:50:29.218Z,3.70
2023-03-06T04:52:56.209Z,3.50
2023-03-06T04:55:23.262Z,3.40
2023-03-06T04:57:51.664Z,3.40
2023-03-06T05:00:21.210Z,3.40
2023-03-06T05:02:49.600Z,3.40
2023-03-06T05:05:18.233Z,3.30
2023-03-06T05:07:45.432Z,3.30
2023-03-06T05:10:22.312Z,3.30
2023-03-06T05:12:49.434Z,3.40
2023-03-06T05:15:18.713Z,3.50
2023-03-06T05:17:46.128Z,3.40
2023-03-06T05:20:16.007Z,3.60
2023-03-06T05:22:43.612Z,3.70
2023-03-06T05:25:11.297Z,3.90
2023-03-06T05:27:38.438Z,3.90
2023-03-06T05:30:06.895Z,4.00
2023-03-06T05:32:35.882Z,4.00
2023-03-06T05:35:03.644Z,4.20
2023-03-06T05:37:31.151Z,4.00
2023-03-06T05:39:58.813Z,3.90
2023-03-06T05:42:28.518Z,3.80
2023-03-06T05:44:55.641Z,3.60
2023-03-06T05:47:25.809Z,3.60
2023-03-06T05:49:54.213Z,3.70
2023-03-06T05:52:21.185Z,3.90
2023-03-06T05:54:51.090Z,3.80
2023-03-06T05:57:19.477Z,4.00
2023-03-06T05:59:47.001Z,4.10
2023-03-06T06:02:14.108Z,4.00
2023-03-06T06:04:41.262Z,3.70
2023-03-06T06:07:13.664Z,3.60
2023-03-06T06:09:40.972Z,3.40
2023-03-06T06:12:12.547Z,3.50
2023-03-06T06:14:39.532Z,3.50
2023-03-06T06:17:06.719Z,3.40
2023-03-06T06:19:33.840Z,3.20
2023-03-06T06:22:00.911Z,3.20
2023-03-06T06:24:29.713Z,3.20
2023-03-06T06:26:58.117Z,3.10
2023-03-06T06:29:26.375Z,3.10
2023-03-06T06:31:54.374Z,3.10
2023-03-06T06:34:22.970Z,3.20
2023-03-06T06:36:53.157Z,3.40
2023-03-06T06:39:22.949Z,3.40
2023-03-06T06:42:05.537Z,3.40
2023-03-06T06:44:38.643Z,3.30
2023-03-06T06:47:24.539Z,3.50
2023-03-06T06:50:03.769Z,3.50
2023-03-06T06:52:31.049Z,3.60
2023-03-06T06:54:58.058Z,3.60
2023-03-06T06:57:26.510Z,3.70
2023-03-06T06:59:54.260Z,3.80
2023-03-06T07:02:21.789Z,4.00
2023-03-06T07:05:02.452Z,4.10
2023-03-06T07:07:30.648Z,4.10
2023-03-06T07:09:57.627Z,4.40
2023-03-06T07:12:26.062Z,4.30
2023-03-06T07:14:53.041Z,4.10
2023-03-06T07:17:22.865Z,4.10
2023-03-06T07:19:53.201Z,4.00
2023-03-06T07:22:22.644Z,3.80
2023-03-06T07:24:49.849Z,3.80
2023-03-06T07:27:16.900Z,3.80
2023-03-06T07:29:48.233Z,3.80
2023-03-06T07:32:15.302Z,3.70
2023-03-06T07:34:42.342Z,3.90
2023-03-06T07:37:09.283Z,4.20
2023-03-06T07:39:36.602Z,4.30
2023-03-06T07:42:03.920Z,4.40
2023-03-06T07:44:31.022Z,4.20
2023-03-06T07:46:59.468Z,4.20
2023-03-06T07:49:26.488Z,4.30
2023-03-06T07:51:53.618Z,4.50
2023-03-06T07:54:20.595Z,4.50
2023-03-06T07:56:50.443Z,4.40
2023-03-06T07:59:17.473Z,4.30
2023-03-06T08:01:45.141Z,4.30
2023-03-06T08:04:13.525Z,4.50
2023-03-06T08:06:40.565Z,4.60
2023-03-06T08:09:07.912Z,4.80
2023-03-06T08:11:34.912Z,5.00
2023-03-06T08:14:01.893Z,4.90
2023-03-06T08:16:30.300Z,4.60
2023-03-06T08:18:57.443Z,4.60
2023-03-06T08:21:27.633Z,4.70
2023-03-06T08:23:54.997Z,4.70
2023-03-06T08:26:24.445Z,4.80
2023-03-06T08:28:51.642Z,4.70
2023-03-06T08:31:31.513Z,4.90
2023-03-06T08:34:00.156Z,5.10
2023-03-06T08:36:28.622Z,5.00
2023-03-06T08:38:56.172Z,4.80
2023-03-06T08:41:23.793Z,4.70
2023-03-06T08:43:51.215Z,5.00
2023-03-06T08:46:19.076Z,5.20
2023-03-06T08:48:46.528Z,5.60
2023-03-06T08:51:14.101Z,5.80
2023-03-06T08:53:44.183Z,5.50
2023-03-06T08:56:16.282Z,5.60
2023-03-06T08:58:43.354Z,5.60
2023-03-06T09:01:13.633Z,5.80
2023-03-06T09:03:40.668Z,5.90
2023-03-06T09:06:07.633Z,6.20
2023-03-06T09:08:34.584Z,6.30
2023-03-06T09:11:03.007Z,6.00
2023-03-06T09:13:30.110Z,5.70
2023-03-06T09:15:57.015Z,5.90
2023-03-06T09:18:24.077Z,5.90
2023-03-06T09:20:51.214Z,5.50
2023-03-06T09:23:18.297Z,5.50
2023-03-06T09:25:45.212Z,5.60
2023-03-06T09:28:13.570Z,5.70
2023-03-06T09:30:41.053Z,5.70
2023-03-06T09:33:08.151Z,5.90
2023-03-06T09:35:35.300Z,6.00
2023-03-06T09:38:02.433Z,5.80
2023-03-06T09:40:45.562Z,5.50
2023-03-06T09:43:21.255Z,5.40
2023-03-06T09:45:48.284Z,5.60
2023-03-06T09:48:16.665Z,5.60
2023-03-06T09:50:48.238Z,5.60
2023-03-06T09:53:31.936Z,5.70
2023-03-06T09:56:03.013Z,5.70
2023-03-06T09:58:37.598Z,5.70
2023-03-06T10:01:11.688Z,5.60
2023-03-06T10:03:46.078Z,5.80
2023-03-06T10:06:18.750Z,5.90
2023-03-06T10:08:51.483Z,5.80
2023-03-06T10:11:22.272Z,5.90
2023-03-06T10:13:54.047Z,6.20
2023-03-06T10:16:27.549Z,6.90
2023-03-06T10:18:55.519Z,6.90
2023-03-06T10:21:43.187Z,6.60
2023-03-06T10:24:22.516Z,6.90
2023-03-06T10:26:52.642Z,7.20
2023-03-06T10:29:50.167Z,7.10
2023-03-06T10:32:46.311Z,7.20
2023-03-06T10:35:19.138Z,7.30
2023-03-06T10:37:46.153Z,7.00
2023-03-06T10:40:17.268Z,7.10
2023-03-06T10:42:44.304Z,7.30
2023-03-06T10:45:15.752Z,7.20
2023-03-06T10:47:43.237Z,7.60
2023-03-06T10:50:25.409Z,7.90
2023-03-06T10:53:03.671Z,8.20
2023-03-06T10:55:32.643Z,8.30
2023-03-06T10:58:18.183Z,8.20
2023-03-06T11:00:49.219Z,8.10
2023-03-06T11:03:20.375Z,8.50
2023-03-06T11:06:00.086Z,8.10
2023-03-06T11:08:27.024Z,7.70
2023-03-06T11:11:01.989Z,7.60
2023-03-06T11:13:29.926Z,7.70
2023-03-06T11:16:02.543Z,8.00
2023-03-06T11:18:34.247Z,8.10
2023-03-06T11:21:03.886Z,8.00
2023-03-06T11:23:42.523Z,7.90
2023-03-06T11:26:32.686Z,8.10
2023-03-06T11:29:11.251Z,8.70
2023-03-06T11:31:46.057Z,9.10
2023-03-06T11:34:18.835Z,9.00
2023-03-06T11:36:49.740Z,8.60
2023-03-06T11:39:26.824Z,8.10
2023-03-06T11:42:01.136Z,8.30
2023-03-06T11:44:36.928Z,8.40
2023-03-06T11:47:16.336Z,8.40
2023-03-06T11:49:46.662Z,8.30
2023-03-06T11:52:22.453Z,8.30
2023-03-06T11:54:54.689Z,8.30
2023-03-06T11:57:25.624Z,8.20
2023-03-06T12:00:22.708Z,8.10
2023-03-06T12:03:19.337Z,7.90
2023-03-06T12:05:52.432Z,7.90
2023-03-06T12:08:43.920Z,7.60
2023-03-06T12:11:19.512Z,7.50
2023-03-06T12:14:04.079Z,7.30
2023-03-06T12:16:50.079Z,7.30
2023-03-06T12:19:29.644Z,7.50
2023-03-06T12:22:12.859Z,7.70
2023-03-06T12:24:59.153Z,7.90
2023-03-06T12:27:35.910Z,7.90
2023-03-06T12:30:22.810Z,7.80
2023-03-06T12:32:57.550Z,8.00
2023-03-06T12:35:43.177Z,7.70
2023-03-06T12:38:31.443Z,7.80
2023-03-06T12:41:06.794Z,7.70
2023-03-06T12:44:04.358Z,7.50
2023-03-06T12:46:38.559Z,7.30
2023-03-06T12:49:17.821Z,7.30
2023-03-06T12:51:50.727Z,7.40
2023-03-06T12:54:21.747Z,7.60
2023-03-06T12:56:49.385Z,7.70
2023-03-06T12:59:49.737Z,7.70
2023-03-06T13:02:50.285Z,7.70
2023-03-06T13:05:58.335Z,7.70
2023-03-06T13:08:53.008Z,7.80
2023-03-06T13:11:48.804Z,7.90
2023-03-06T13:14:21.858Z,7.90
2023-03-06T13:16:49.075Z,7.80
2023-03-06T13:19:19.190Z,8.10
2023-03-06T13:22:02.652Z,8.20
2023-03-06T13:24:32.303Z,8.00
2023-03-06T13:27:06.800Z,7.80
2023-03-06T13:30:16.377Z,7.50
2023-03-06T13:32:43.376Z,7.40
2023-03-06T13:35:45.980Z,7.60
2023-03-06T13:38:37.062Z,8.00
2023-03-06T13:41:26.882Z,7.90
2023-03-06T13:43:56.568Z,7.60
2023-03-06T13:46:27.079Z,7.80
2023-03-06T13:49:17.789Z,8.00
2023-03-06T13:52:05.145Z,8.00
2023-03-06T13:54:46.562Z,8.30
2023-03-06T13:57:42.760Z,8.30
2023-03-06T14:00:30.902Z,7.90
2023-03-06T14:03:30.316Z,8.00
2023-03-06T14:05:57.445Z,8.20
2023-03-06T14:08:27.244Z,8.10
2023-03-06T14:11:02.740Z,7.90
2023-03-06T14:13:46.670Z,7.90
2023-03-06T14:16:21.601Z,8.00
2023-03-06T14:18:50.472Z,8.30
2023-03-06T14:21:28.037Z,8.40
2023-03-06T14:24:00.565Z,8.80
2023-03-06T14:26:31.734Z,9.00
2023-03-06T14:29:00.535Z,9.00
2023-03-06T14:31:32.339Z,9.20
2023-03-06T14:34:01.162Z,8.70
2023-03-06T14:36:33.895Z,8.80
2023-03-06T14:39:05.261Z,8.60
2023-03-06T14:41:34.392Z,8.60
2023-03-06T14:44:09.637Z,8.50
2023-03-06T14:46:38.309Z,8.30
2023-03-06T14:49:07.553Z,8.20
2023-03-06T14:51:40.219Z,8.40
2023-03-06T14:54:10.391Z,8.20
2023-03-06T14:56:40.983Z,8.20
2023-03-06T14:59:12.845Z,8.10
2023-03-06T15:01:43.563Z,8.30
2023-03-06T15:04:27.222Z,8.20
2023-03-06T15:06:56.466Z,8.10
2023-03-06T15:09:26.570Z,8.00
2023-03-06T15:11:56.452Z,8.20
2023-03-06T15:14:34.424Z,8.40
2023-03-06T15:17:24.317Z,8.40
2023-03-06T15:19:53.218Z,8.40
2023-03-06T15:22:27.461Z,8.20
2023-03-06T15:25:06.404Z,8.00
2023-03-06T15:27:33.723Z,7.80
2023-03-06T15:30:12.638Z,7.90
2023-03-06T15:32:41.112Z,7.90
2023-03-06T15:35:28.725Z,7.90
2023-03-06T15:37:56.077Z,7.70
2023-03-06T15:40:25.054Z,7.80
2023-03-06T15:42:52.159Z,7.70
2023-03-06T15:45:21.686Z,7.50
2023-03-06T15:47:51.524Z,7.50
2023-03-06T15:50:20.907Z,7.60
2023-03-06T15:52:49.080Z,7.50
2023-03-06T15:55:18.512Z,7.50
2023-03-06T15:57:49.740Z,7.60
2023-03-06T16:00:27.738Z,7.60
2023-03-06T16:02:56.757Z,7.50
2023-03-06T16:05:24.673Z,7.70
2023-03-06T16:07:52.022Z,7.70
2023-03-06T16:10:20.763Z,7.60
2023-03-06T16:12:50.183Z,7.40
2023-03-06T16:15:20.000Z,7.50
2023-03-06T16:17:47.266Z,7.60
2023-03-06T16:20:18.307Z,7.60
2023-03-06T16:22:46.550Z,7.70
2023-03-06T16:25:14.548Z,7.50
2023-03-06T16:27:42.822Z,7.40
2023-03-06T16:30:18.060Z,7.50
2023-03-06T16:32:46.022Z,7.60
2023-03-06T16:35:15.278Z,7.50
2023-03-06T16:37:42.608Z,7.60
2023-03-06T16:40:18.361Z,7.70
2023-03-06T16:42:45.586Z,7.60
2023-03-06T16:45:12.843Z,7.70
2023-03-06T16:47:40.034Z,7.60
2023-03-06T16:50:19.038Z,7.60
2023-03-06T16:52:47.418Z,7.50
2023-03-06T16:55:14.986Z,7.40
2023-03-06T16:57:42.222Z,7.40
2023-03-06T17:00:10.365Z,7.30
2023-03-06T17:02:38.035Z,7.40
2023-03-06T17:05:05.810Z,7.50
2023-03-06T17:07:33.289Z,7.50
2023-03-06T17:10:01.868Z,7.60
2023-03-06T17:12:29.278Z,7.40
2023-03-06T17:14:56.355Z,7.40
2023-03-06T17:17:23.945Z,7.30
2023-03-06T17:19:51.508Z,7.30
2023-03-06T17:22:19.444Z,7.30
2023-03-06T17:24:46.899Z,7.10
2023-03-06T17:27:15.300Z,7.10
2023-03-06T17:29:42.356Z,7.30
2023-03-06T17:32:09.420Z,7.30
2023-03-06T17:34:36.376Z,7.10
2023-03-06T17:37:03.517Z,7.10
2023-03-06T17:39:32.484Z,7.00
2023-03-06T17:41:59.451Z,6.90
2023-03-06T17:44:28.192Z,6.80
2023-03-06T17:46:55.688Z,6.60
2023-03-06T17:49:22.953Z,6.60
2023-03-06T17:51:49.981Z,6.30
2023-03-06T17:54:17.078Z,6.20
2023-03-06T17:56:44.578Z,6.20
2023-03-06T17:59:11.770Z,6.20
2023-03-06T18:01:40.272Z,6.10
2023-03-06T18:04:07.317Z,6.00
2023-03-06T18:06:34.704Z,5.90
2023-03-06T18:09:01.764Z,5.80
2023-03-06T18:11:29.399Z,5.80
2023-03-06T18:13:56.723Z,5.80
2023-03-06T18:16:26.203Z,5.70
2023-03-06T18:18:56.486Z,5.80
2023-03-06T18:21:24.890Z,5.90
2023-03-06T18:23:51.864Z,5.80
2023-03-06T18:26:21.032Z,5.80
2023-03-06T18:28:51.267Z,5.70
2023-03-06T18:31:19.955Z,5.70
2023-03-06T18:33:48.634Z,5.70
2023-03-06T18:36:17.962Z,5.60
2023-03-06T18:38:45.507Z,5.60
2023-03-06T18:41:13.589Z,5.70
2023-03-06T18:43:40.802Z,5.60
2023-03-06T18:46:08.211Z,5.80
2023-03-06T18:48:35.822Z,5.80
2023-03-06T18:51:07.420Z,5.70
2023-03-06T18:53:36.410Z,5.60
2023-03-06T18:56:06.027Z,5.60
2023-03-06T18:58:33.327Z,5.60
2023-03-06T19:01:05.049Z,5.60
2023-03-06T19:03:32.128Z,5.50
2023-03-06T19:05:59.147Z,5.40
2023-03-06T19:08:26.218Z,5.50
2023-03-06T19:10:54.694Z,5.50
2023-03-06T19:13:21.943Z,5.70
2023-03-06T19:15:49.529Z,5.70
2023-03-06T19:18:17.702Z,5.60
2023-03-06T19:20:45.593Z,5.50
2023-03-06T19:23:12.839Z,5.60
2023-03-06T19:25:40.086Z,5.70
2023-03-06T19:28:08.509Z,5.70
2023-03-06T19:30:35.515Z,5.80
2023-03-06T19:33:02.588Z,5.70
2023-03-06T19:35:29.694Z,5.70
2023-03-06T19:37:57.102Z,5.60
2023-03-06T19:40:24.079Z,5.80
2023-03-06T19:42:51.032Z,5.60
2023-03-06T19:45:19.631Z,5.60
2023-03-06T19:47:46.633Z,5.50
2023-03-06T19:50:13.632Z,5.60
2023-03-06T19:52:40.976Z,5.70
2023-03-06T19:55:09.022Z,5.70
2023-03-06T19:57:36.015Z,5.60
2023-03-06T20:00:03.446Z,5.70
2023-03-06T20:02:31.860Z,5.70
2023-03-06T20:04:58.813Z,5.60
2023-03-06T20:07:25.829Z,5.70
2023-03-06T20:09:52.887Z,5.70
2023-03-06T20:12:19.830Z,5.70
2023-03-06T20:14:46.863Z,5.70
2023-03-06T20:17:13.868Z,5.80
2023-03-06T20:19:42.565Z,5.90
2023-03-06T20:22:09.698Z,5.80
2023-03-06T20:24:36.747Z,5.70
2023-03-06T20:27:03.875Z,5.60
2023-03-06T20:29:31.770Z,5.60
2023-03-06T20:31:59.322Z,5.60
2023-03-06T20:34:26.570Z,5.60
2023-03-06T20:36:55.150Z,5.60
2023-03-06T20:39:22.459Z,5.70
2023-03-06T20:41:50.074Z,5.60
2023-03-06T20:44:19.982Z,5.60
2023-03-06T20:46:47.105Z,5.60
2023-03-06T20:49:14.552Z,5.60
2023-03-06T20:51:41.971Z,5.50
2023-03-06T20:54:12.025Z,5.50
2023-03-06T20:56:41.351Z,5.50
2023-03-06T20:59:10.743Z,5.50
2023-03-06T21:01:39.533Z,5.50
2023-03-06T21:04:13.937Z,5.60
2023-03-06T21:06:42.239Z,5.70
2023-03-06T21:09:10.735Z,5.70
2023-03-06T21:11:37.964Z,5.60
2023-03-06T21:14:04.996Z,5.50
2023-03-06T21:16:32.160Z,5.40
2023-03-06T21:19:00.848Z,5.50
2023-03-06T21:21:30.396Z,5.50
2023-03-06T21:23:57.510Z,5.50
2023-03-06T21:26:27.947Z,5.50
2023-03-06T21:28:56.556Z,5.50
2023-03-06T21:31:23.554Z,5.50
2023-03-06T21:33:51.151Z,5.40
2023-03-06T21:36:19.454Z,5.50
2023-03-06T21:38:47.499Z,5.50
2023-03-06T21:41:16.353Z,5.50
2023-03-06T21:43:44.901Z,5.50
2023-03-06T21:46:12.443Z,5.60
2023-03-06T21:48:39.625Z,5.50
2023-03-06T21:51:08.138Z,5.50
2023-03-06T21:53:35.585Z,5.50
2023-03-06T21:56:03.136Z,5.50
2023-03-06T21:58:30.352Z,5.50
2023-03-06T22:00:59.098Z,5.50
2023-03-06T22:03:26.331Z,5.50
2023-03-06T22:05:53.494Z,5.50
2023-03-06T22:08:21.080Z,5.40
2023-03-06T22:10:48.719Z,5.40
2023-03-06T22:13:16.352Z,5.50
2023-03-06T22:15:50.736Z,5.40
2023-03-06T22:18:19.188Z,5.40
2023-03-06T22:20:46.212Z,5.40
2023-03-06T22:23:13.197Z,5.40
2023-03-06T22:25:40.565Z,5.40
2023-03-06T22:28:07.561Z,5.40
2023-03-06T22:30:34.749Z,5.40
2023-03-06T22:33:01.800Z,5.40
2023-03-06T22:35:30.460Z,5.40
2023-03-06T22:37:57.750Z,5.40
2023-03-06T22:40:25.757Z,5.40
2023-03-06T22:42:52.786Z,5.40
2023-03-06T22:45:19.842Z,5.20
2023-03-06T22:47:47.198Z,5.30
2023-03-06T22:50:14.464Z,5.30
2023-03-06T22:52:43.034Z,5.30
2023-03-06T22:55:10.616Z,5.30
2023-03-06T22:57:37.587Z,5.30
2023-03-06T23:00:05.568Z,5.20
2023-03-06T23:02:33.452Z,5.20
2023-03-06T23:05:00.410Z,5.30
2023-03-06T23:07:27.381Z,5.30
2023-03-06T23:09:55.831Z,5.30
2023-03-06T23:12:22.843Z,5.20
2023-03-06T23:14:50.215Z,5.20
2023-03-06T23:17:17.558Z,5.20
2023-03-06T23:19:44.610Z,5.20
2023-03-06T23:22:11.685Z,5.30
2023-03-06T23:24:38.824Z,5.20
2023-03-06T23:27:07.233Z,5.20
2023-03-06T23:29:34.223Z,5.20
2023-03-06T23:32:01.418Z,5.20
2023-03-06T23:34:28.409Z,5.20
2023-03-06T23:36:55.690Z,5.20
2023-03-06T23:39:22.700Z,5.20
2023-03-06T23:41:49.704Z,5.20
2023-03-06T23:44:18.984Z,5.30
2023-03-06T23:46:46.198Z,5.20
2023-03-06T23:49:13.169Z,5.20
2023-03-06T23:51:40.126Z,5.20
2023-03-06T23:54:07.479Z,5.20
2023-03-06T23:56:34.486Z,5.30
2023-03-06T23:59:01.688Z,5.30
